This is the latest recevied weather packets stored in our database for station/object K7OLI-13. If no packets are shown the sender has not sent any weather packets the latest 10 day(s).
| Time | Temp. | Humidity | Pressure | Rain* | Wind** | Luminosity | Snow |
|---|---|---|---|---|---|---|---|
| 1777435843 | 11.11° C | 71% | 1020 hPa | 0 mm | - | - | - |
| 1777430437 | 13.89° C | 59% | 1019 hPa | 0 mm | - | - | - |
| 1777423830 | 17.22° C | 50% | 1019.1 hPa | 0 mm | - | - | - |
| 1777422023 | 17.22° C | 45% | 1019.1 hPa | 0 mm | - | - | - |
| 1777420264 | 18.33° C | 45% | 1019.1 hPa | 0 mm | - | - | - |
| 1777417836 | 17.78° C | 45% | 1019.1 hPa | 0 mm | - | - | - |
| 1777417225 | 17.78° C | 45% | 1019.1 hPa | 0 mm | - | - | - |
| 1777412453 | 18.33° C | 46% | 1020.1 hPa | 0 mm | - | - | - |
| 1777409434 | 16.11° C | 51% | 1021.1 hPa | 0 mm | - | - | - |
| 1777407620 | 15° C | 55% | 1021.1 hPa | 0 mm | - | - | - |
| 1777406436 | 16.11° C | 53% | 1021.1 hPa | 0 mm | - | - | - |
| 1777401033 | 14.44° C | 64% | 1021.1 hPa | 0 mm | - | - | - |
| 1777398035 | 13.33° C | 70% | 1021.1 hPa | 0 mm | - | - | - |
| 1777397424 | 12.78° C | 73% | 1021 hPa | 0 mm | - | - | - |
| 1777392623 | 11.67° C | 76% | 1021 hPa | 0 mm | - | - | - |
| 1777392024 | 11.67° C | 77% | 1021 hPa | 0 mm | - | - | - |
| 1777391431 | 11.67° C | 77% | 1020 hPa | 0 mm | - | - | - |
| 1777386640 | 10° C | 83% | 1020 hPa | 0 mm | - | - | - |
| 1777384825 | 10° C | 85% | 1019.1 hPa | 0 mm | - | - | - |
| 1777374626 | 9.44° C | 87% | 1018.1 hPa | 0 mm | - | - | - |
| 1777374019 | 9.44° C | 87% | 1018.1 hPa | 0 mm | - | - | - |
| 1777372225 | 9.44° C | 87% | 1018.1 hPa | 0 mm | - | - | - |
| 1777370430 | 9.44° C | 87% | 1018.1 hPa | 0 mm | - | - | - |
| 1777366825 | 10° C | 86% | 1018.1 hPa | 0 mm | - | - | - |
| 1777365619 | 10° C | 86% | 1018 hPa | 0 mm | - | - | - |
* Rain latest hour (hover to see other rain measurements)
** Current wind speed in m/s (hover to see current wind gust speed)